createdAt,value
2023-02-13T00:00:39.303Z,10.9
2023-02-13T00:03:41.313Z,8.8
2023-02-13T00:06:43.234Z,9.6
2023-02-13T00:09:45.190Z,10.7
2023-02-13T00:12:47.115Z,9.5
2023-02-13T00:15:49.128Z,8.8
2023-02-13T00:18:51.027Z,10.2
2023-02-13T00:21:53.019Z,10.3
2023-02-13T00:24:54.985Z,9.8
2023-02-13T00:27:56.919Z,10.5
2023-02-13T00:30:59.275Z,11
2023-02-13T00:34:00.823Z,11.2
2023-02-13T00:37:02.813Z,14.3
2023-02-13T00:40:04.771Z,10.6
2023-02-13T00:43:06.725Z,12.7
2023-02-13T00:46:08.698Z,12.5
2023-02-13T00:49:10.655Z,12.5
2023-02-13T00:52:12.610Z,12.4
2023-02-13T00:55:14.600Z,11.2
2023-02-13T00:58:16.590Z,11.8
2023-02-13T01:01:18.626Z,12.3
2023-02-13T01:04:20.462Z,12.4
2023-02-13T01:07:22.412Z,12.3
2023-02-13T01:10:24.396Z,14.7
2023-02-13T01:13:26.370Z,14.3
2023-02-13T01:16:28.347Z,13.2
2023-02-13T01:19:30.284Z,14.5
2023-02-13T01:22:32.208Z,16.9
2023-02-13T01:25:34.165Z,16
2023-02-13T01:28:36.171Z,15.2
2023-02-13T01:31:38.290Z,15
2023-02-13T01:34:40.072Z,14.2
2023-02-13T01:37:42.103Z,12.3
2023-02-13T01:40:44.185Z,12.7
2023-02-13T01:43:45.994Z,11.1
2023-02-13T01:46:47.972Z,12.6
2023-02-13T01:49:49.902Z,10.5
2023-02-13T01:52:51.886Z,13.3
2023-02-13T01:55:53.867Z,14.1
2023-02-13T01:58:55.808Z,11.6
2023-02-13T02:01:57.918Z,13.2
2023-02-13T02:04:59.702Z,15.5
2023-02-13T02:08:01.676Z,14.8
2023-02-13T02:11:03.629Z,14.2
2023-02-13T02:14:05.575Z,17.6
2023-02-13T02:17:07.530Z,18.4
2023-02-13T02:20:09.533Z,17.3
2023-02-13T02:23:11.470Z,16.6
2023-02-13T02:26:13.450Z,18.1
2023-02-13T02:29:15.407Z,16.6
2023-02-13T02:32:17.386Z,16.4
2023-02-13T02:35:19.352Z,16
2023-02-13T02:38:21.383Z,19.2
2023-02-13T02:41:23.301Z,16.6
2023-02-13T02:44:25.273Z,15.1
2023-02-13T02:47:27.224Z,18.8
2023-02-13T02:50:29.143Z,23.3
2023-02-13T02:53:31.116Z,21.7
2023-02-13T02:56:33.072Z,19.1
2023-02-13T02:59:35.069Z,24
2023-02-13T03:02:37.015Z,17.6
2023-02-13T03:05:38.970Z,23.1
2023-02-13T03:08:41.046Z,19
2023-02-13T03:11:42.878Z,17.4
2023-02-13T03:14:44.881Z,19.5
2023-02-13T03:17:46.847Z,20.3
2023-02-13T03:20:48.787Z,21.1
2023-02-13T03:23:50.752Z,21.7
2023-02-13T03:26:52.685Z,17.6
2023-02-13T03:29:54.707Z,17
2023-02-13T03:32:56.585Z,17.3
2023-02-13T03:35:58.544Z,22.2
2023-02-13T03:39:00.517Z,20.9
2023-02-13T03:42:02.485Z,19.5
2023-02-13T03:45:04.440Z,22.9
2023-02-13T03:48:06.405Z,21.9
2023-02-13T03:51:08.370Z,21.2
2023-02-13T03:54:10.325Z,19.8
2023-02-13T03:57:12.281Z,18.9
2023-02-13T04:00:14.253Z,19.1
2023-02-13T04:03:16.242Z,21.6
2023-02-13T04:06:18.198Z,19.5
2023-02-13T04:09:20.153Z,19.6
2023-02-13T04:12:22.153Z,18.4
2023-02-13T04:15:24.063Z,22.4
2023-02-13T04:18:26.026Z,20.2
2023-02-13T04:21:27.986Z,20.8
2023-02-13T04:24:29.956Z,22.2
2023-02-13T04:27:31.905Z,18.2
2023-02-13T04:30:33.911Z,21.4
2023-02-13T04:33:35.871Z,20.9
2023-02-13T04:36:37.851Z,23.6
2023-02-13T04:39:39.748Z,23.9
2023-02-13T04:42:41.742Z,23.1
2023-02-13T04:45:43.765Z,22.2
2023-02-13T04:48:45.665Z,25.8
2023-02-13T04:51:47.630Z,22.8
2023-02-13T04:54:49.572Z,22.2
2023-02-13T04:57:51.538Z,21.9
2023-02-13T05:00:53.499Z,21.8
2023-02-13T05:03:55.494Z,22.2
2023-02-13T05:06:57.454Z,21.5
2023-02-13T05:09:59.392Z,20.4
2023-02-13T05:13:01.355Z,22.1
2023-02-13T05:16:03.417Z,21.6
2023-02-13T05:19:05.247Z,18.8
2023-02-13T05:22:07.222Z,21.8
2023-02-13T05:25:09.198Z,22.6
2023-02-13T05:28:11.189Z,21.9
2023-02-13T05:31:13.174Z,20
2023-02-13T05:34:15.095Z,25.1
2023-02-13T05:37:17.054Z,19.9
2023-02-13T05:40:18.994Z,21.3
2023-02-13T05:43:20.999Z,22.4
2023-02-13T05:46:22.997Z,25
2023-02-13T05:49:24.869Z,23.5
2023-02-13T05:52:26.832Z,24.7
2023-02-13T05:55:28.792Z,21.9
2023-02-13T05:58:30.759Z,18.3
2023-02-13T06:01:32.715Z,22.4
2023-02-13T06:04:34.694Z,21.2
2023-02-13T06:07:36.657Z,22
2023-02-13T06:10:38.618Z,24.8
2023-02-13T06:13:42.659Z,24.4
2023-02-13T06:16:42.531Z,25.8
2023-02-13T06:19:44.496Z,27
2023-02-13T06:22:46.611Z,23.8
2023-02-13T06:25:48.414Z,22
2023-02-13T06:28:50.369Z,22.6
2023-02-13T06:31:52.392Z,31
2023-02-13T06:34:54.362Z,31.7
2023-02-13T06:37:56.304Z,28.4
2023-02-13T06:40:58.541Z,26.9
2023-02-13T06:44:00.213Z,25
2023-02-13T06:47:02.208Z,28
2023-02-13T06:50:04.117Z,28.8
2023-02-13T06:53:06.085Z,29.9
2023-02-13T06:56:08.046Z,32.7
2023-02-13T06:59:10.143Z,27
2023-02-13T07:02:11.959Z,28.2
2023-02-13T07:05:13.925Z,25.4
2023-02-13T07:08:15.885Z,28.9
2023-02-13T07:11:17.904Z,31.8
2023-02-13T07:14:19.836Z,34.2
2023-02-13T07:17:21.793Z,30.8
2023-02-13T07:20:23.776Z,29.7
2023-02-13T07:23:25.742Z,28.5
2023-02-13T07:26:27.703Z,28.7
2023-02-13T07:29:29.675Z,31.1
2023-02-13T07:32:31.632Z,29.5
2023-02-13T07:35:33.655Z,29.4
2023-02-13T07:38:35.597Z,31.6
2023-02-13T07:41:37.542Z,27.6
2023-02-13T07:44:39.507Z,28.6
2023-02-13T07:47:41.470Z,27.6
2023-02-13T07:50:43.456Z,34.9
2023-02-13T07:53:45.417Z,29.8
2023-02-13T07:56:47.408Z,27.9
2023-02-13T07:59:49.353Z,32.6
2023-02-13T08:02:51.363Z,30.9
2023-02-13T08:05:53.305Z,28.6
2023-02-13T08:08:55.258Z,30.7
2023-02-13T08:11:57.202Z,32.7
2023-02-13T08:14:59.191Z,31.5
2023-02-13T08:18:01.142Z,32
2023-02-13T08:21:03.103Z,31.3
2023-02-13T08:24:05.072Z,30.9
2023-02-13T08:27:07.038Z,28.7
2023-02-13T08:30:08.976Z,26.5
2023-02-13T08:33:11.069Z,29.7
2023-02-13T08:36:12.902Z,31.2
2023-02-13T08:39:14.858Z,30.4
2023-02-13T08:42:16.798Z,30.1
2023-02-13T08:45:18.808Z,30.5
2023-02-13T08:48:20.762Z,29.4
2023-02-13T08:51:22.690Z,31.2
2023-02-13T08:54:24.834Z,29.5
2023-02-13T08:57:26.648Z,29.2
2023-02-13T09:00:28.570Z,28.4
2023-02-13T09:03:30.550Z,29.9
2023-02-13T09:06:32.507Z,32.7
2023-02-13T09:09:34.461Z,28.9
2023-02-13T09:12:36.458Z,29.7
2023-02-13T09:15:38.414Z,28.7
2023-02-13T09:18:40.377Z,29.4
2023-02-13T09:21:42.349Z,25
2023-02-13T09:24:44.329Z,22.8
2023-02-13T09:27:46.298Z,27.2
2023-02-13T09:30:48.365Z,24.5
2023-02-13T09:33:50.318Z,24
2023-02-13T09:36:52.260Z,23.7
2023-02-13T09:39:54.296Z,23.6
2023-02-13T09:42:56.347Z,22.1
2023-02-13T09:45:58.463Z,19.3
2023-02-13T09:49:00.109Z,24.8
2023-02-13T09:52:11.056Z,22.8
2023-02-13T09:55:05.493Z,19.8
2023-02-13T09:58:22.012Z,22.2
2023-02-13T10:01:21.720Z,26.6
2023-02-13T10:04:32.514Z,19.1
2023-02-13T10:07:25.844Z,21.4
2023-02-13T10:10:57.985Z,21.8
2023-02-13T10:13:31.538Z,21.9
2023-02-13T10:16:33.630Z,23.7
2023-02-13T10:19:35.719Z,25.2
2023-02-13T10:22:43.197Z,22.8
2023-02-13T10:25:42.844Z,25.2
2023-02-13T10:28:44.877Z,22
2023-02-13T10:31:46.897Z,21.1
2023-02-13T10:34:48.812Z,18
2023-02-13T10:37:50.704Z,21.2
2023-02-13T10:40:52.658Z,22.6
2023-02-13T10:43:54.629Z,20.7
2023-02-13T10:46:56.689Z,22.7
2023-02-13T10:49:58.563Z,24.6
2023-02-13T10:53:00.545Z,20.8
2023-02-13T10:56:02.581Z,17.7
2023-02-13T10:59:04.473Z,20.2
2023-02-13T11:02:06.438Z,21.1
2023-02-13T11:05:08.407Z,18.2
2023-02-13T11:08:10.350Z,18
2023-02-13T11:11:12.310Z,20.6
2023-02-13T11:14:14.287Z,18.4
2023-02-13T11:17:16.238Z,17.8
2023-02-13T11:20:18.217Z,16.5
2023-02-13T11:23:20.212Z,18.4
2023-02-13T11:26:22.178Z,17.3
2023-02-13T11:29:24.126Z,15.6
2023-02-13T11:32:26.204Z,16.6
2023-02-13T11:35:28.088Z,14.6
2023-02-13T11:38:30.892Z,14.9
2023-02-13T11:41:32.067Z,14.6
2023-02-13T11:44:34.066Z,13.2
2023-02-13T11:47:36.005Z,16.3
2023-02-13T11:50:37.983Z,11.8
2023-02-13T11:53:39.904Z,11.7
2023-02-13T11:56:50.252Z,13.3
2023-02-13T11:59:43.866Z,13.8
2023-02-13T12:02:45.855Z,13.8
2023-02-13T12:05:47.761Z,12.1
2023-02-13T12:08:49.720Z,14.3
2023-02-13T12:11:51.689Z,13.6
2023-02-13T12:14:53.610Z,13.7
2023-02-13T12:17:55.614Z,12.5
2023-02-13T12:20:57.921Z,14.3
2023-02-13T12:23:59.625Z,12.5
2023-02-13T12:27:01.561Z,13.6
2023-02-13T12:30:03.579Z,12.2
2023-02-13T12:33:05.493Z,11.8
2023-02-13T12:36:07.454Z,15.4
2023-02-13T12:39:09.467Z,12.5
2023-02-13T12:42:11.376Z,10.8
2023-02-13T12:45:13.350Z,10.9
2023-02-13T12:48:15.329Z,12.8
2023-02-13T12:51:17.337Z,10.3
2023-02-13T12:54:19.322Z,13.2
2023-02-13T12:57:21.286Z,9.6
2023-02-13T13:00:23.241Z,7.7
2023-02-13T13:03:25.193Z,11.3
2023-02-13T13:06:27.188Z,10.3
2023-02-13T13:09:29.107Z,9.6
2023-02-13T13:12:31.053Z,10.3
2023-02-13T13:15:33.029Z,7.6
2023-02-13T13:18:34.985Z,8.3
2023-02-13T13:21:36.956Z,10.8
2023-02-13T13:24:38.903Z,10.4
2023-02-13T13:27:40.875Z,8.8
2023-02-13T13:30:42.897Z,7.4
2023-02-13T13:33:44.794Z,6.1
2023-02-13T13:36:46.762Z,7.6
2023-02-13T13:39:48.752Z,5.7
2023-02-13T13:42:50.692Z,5.8
2023-02-13T13:45:52.678Z,5.2
2023-02-13T13:48:54.644Z,5.1
2023-02-13T13:51:56.803Z,6.2
2023-02-13T13:54:58.581Z,5.6
2023-02-13T13:58:00.573Z,5.9
2023-02-13T14:01:02.560Z,4
2023-02-13T14:04:04.475Z,5.5
2023-02-13T14:07:06.463Z,8.2
2023-02-13T14:10:08.570Z,8.3
2023-02-13T14:13:10.423Z,6.1
2023-02-13T14:16:12.427Z,6.4
2023-02-13T14:19:14.321Z,4.3
2023-02-13T14:22:16.343Z,5.4
2023-02-13T14:25:18.367Z,4.2
2023-02-13T14:28:20.288Z,6
2023-02-13T14:31:22.423Z,5.1
2023-02-13T14:34:24.198Z,4.9
2023-02-13T14:37:26.133Z,5.4
2023-02-13T14:40:28.100Z,5.1
2023-02-13T14:43:30.049Z,5.6
2023-02-13T14:46:32.050Z,4
2023-02-13T14:49:33.984Z,4.9
2023-02-13T14:52:35.948Z,3.8
2023-02-13T14:55:37.926Z,10.4
2023-02-13T14:58:39.878Z,4.5
2023-02-13T15:01:41.878Z,5.1
2023-02-13T15:04:43.958Z,5.3
2023-02-13T15:07:45.782Z,5.9
2023-02-13T15:10:47.760Z,5.2
2023-02-13T15:13:49.729Z,7.2
2023-02-13T15:16:51.748Z,5.4
2023-02-13T15:19:53.689Z,5
2023-02-13T15:22:55.633Z,5.5
2023-02-13T15:25:57.585Z,5.1
2023-02-13T15:28:59.533Z,5.8
2023-02-13T15:32:01.597Z,6
2023-02-13T15:35:03.498Z,6.1
2023-02-13T15:38:05.468Z,5.2
2023-02-13T15:41:07.453Z,6.2
2023-02-13T15:44:09.398Z,6.1
2023-02-13T15:47:11.366Z,7.7
2023-02-13T15:50:13.334Z,5
2023-02-13T15:53:15.295Z,6.7
2023-02-13T15:56:17.249Z,5.9
2023-02-13T15:59:19.217Z,4.5
2023-02-13T16:02:21.279Z,3.9
2023-02-13T16:05:38.443Z,5
2023-02-13T16:08:25.152Z,5.9
2023-02-13T16:11:27.090Z,3.9
2023-02-13T16:14:29.039Z,4.4
2023-02-13T16:17:31.033Z,5.5
2023-02-13T16:20:32.980Z,4.3
2023-02-13T16:23:34.927Z,3.7
2023-02-13T16:26:36.989Z,3.5
2023-02-13T16:29:38.892Z,3.4
2023-02-13T16:32:40.867Z,4.7
2023-02-13T16:35:42.824Z,4.5
2023-02-13T16:38:44.791Z,3.4
2023-02-13T16:41:46.740Z,4.3
2023-02-13T16:44:48.690Z,3.7
2023-02-13T16:47:50.659Z,3.4
2023-02-13T16:50:52.639Z,4.1
2023-02-13T16:53:54.578Z,3.9
2023-02-13T16:56:56.600Z,3.5
2023-02-13T16:59:58.519Z,4.3
2023-02-13T17:03:00.459Z,3.2
2023-02-13T17:06:02.458Z,4.5
2023-02-13T17:09:04.389Z,3.9
2023-02-13T17:12:06.341Z,3.6
2023-02-13T17:15:08.304Z,6.2
2023-02-13T17:18:10.277Z,3.3
2023-02-13T17:21:12.243Z,5.3
2023-02-13T17:24:14.219Z,5.9
2023-02-13T17:27:16.177Z,4.1
2023-02-13T17:30:18.277Z,5.2
2023-02-13T17:33:20.110Z,4.7
2023-02-13T17:36:22.106Z,6.4
2023-02-13T17:39:24.058Z,6.4
2023-02-13T17:42:25.993Z,4.8
2023-02-13T17:45:27.956Z,4.8
2023-02-13T17:48:29.903Z,5.6
2023-02-13T17:51:31.852Z,5.5
2023-02-13T17:54:33.842Z,6.7
2023-02-13T17:57:35.820Z,6.1
2023-02-13T18:00:37.796Z,5.1
2023-02-13T18:03:39.768Z,6.1
2023-02-13T18:06:41.716Z,5.1
2023-02-13T18:09:43.673Z,6.4
2023-02-13T18:12:45.651Z,10.4
2023-02-13T18:15:47.653Z,7
2023-02-13T18:18:49.579Z,9
2023-02-13T18:21:51.561Z,7.9
2023-02-13T18:24:53.567Z,10.5
2023-02-13T18:27:55.517Z,8.6
2023-02-13T18:30:57.983Z,12.2
2023-02-13T18:33:59.451Z,12
2023-02-13T18:37:01.369Z,10.4
2023-02-13T18:40:03.337Z,9.5
2023-02-13T18:43:05.327Z,12.1
2023-02-13T18:46:07.328Z,10.2
2023-02-13T18:49:09.243Z,11.1
2023-02-13T18:52:11.189Z,12.2
2023-02-13T18:55:13.160Z,10.4
2023-02-13T18:58:15.115Z,13
2023-02-13T19:01:17.112Z,9.7
2023-02-13T19:04:19.036Z,11.7
2023-02-13T19:07:20.995Z,13.3
2023-02-13T19:10:22.935Z,10.7
2023-02-13T19:13:24.905Z,14.1
2023-02-13T19:16:26.908Z,11.3
2023-02-13T19:19:28.851Z,13.7
2023-02-13T19:22:30.795Z,10.7
2023-02-13T19:25:32.760Z,14.2
2023-02-13T19:28:34.711Z,13.9
2023-02-13T19:31:36.898Z,13.2
2023-02-13T19:34:38.633Z,12
2023-02-13T19:37:44.016Z,14.1
2023-02-13T19:40:42.567Z,16.6
2023-02-13T19:43:44.520Z,12.9
2023-02-13T19:46:46.552Z,13.3
2023-02-13T19:49:48.462Z,13.7
2023-02-13T19:52:50.496Z,11.6
2023-02-13T19:55:52.397Z,14.9
2023-02-13T19:58:54.355Z,16.4
2023-02-13T20:01:56.344Z,13.8
2023-02-13T20:04:58.258Z,15
2023-02-13T20:08:00.210Z,14.6
2023-02-13T20:11:02.199Z,16.1
2023-02-13T20:14:04.177Z,12.2
2023-02-13T20:17:06.115Z,13.8
2023-02-13T20:20:08.112Z,14.2
2023-02-13T20:23:10.020Z,13.8
2023-02-13T20:26:11.978Z,15.5
2023-02-13T20:29:13.962Z,14.7
2023-02-13T20:32:15.965Z,16.3
2023-02-13T20:35:17.854Z,15.2
2023-02-13T20:38:19.805Z,15.6
2023-02-13T20:41:21.808Z,17.8
2023-02-13T20:44:23.734Z,17.6
2023-02-13T20:47:25.692Z,16.2
2023-02-13T20:50:27.655Z,13.9
2023-02-13T20:53:29.600Z,19.2
2023-02-13T20:56:31.603Z,16.3
2023-02-13T20:59:33.526Z,22.8
2023-02-13T21:02:35.581Z,19
2023-02-13T21:05:37.529Z,17
2023-02-13T21:08:39.415Z,20.7
2023-02-13T21:11:41.361Z,16.3
2023-02-13T21:14:43.332Z,19.4
2023-02-13T21:17:45.295Z,22
2023-02-13T21:20:47.246Z,18.3
2023-02-13T21:23:49.208Z,18.3
2023-02-13T21:26:51.168Z,18.2
2023-02-13T21:29:53.178Z,18.1
2023-02-13T21:32:55.133Z,15.9
2023-02-13T21:35:57.062Z,16.9
2023-02-13T21:38:59.058Z,17.8
2023-02-13T21:42:00.977Z,16.4
2023-02-13T21:45:02.954Z,20.6
2023-02-13T21:48:04.916Z,16.4
2023-02-13T21:51:06.868Z,19.5
2023-02-13T21:54:08.858Z,15.8
2023-02-13T21:57:10.831Z,22.4
2023-02-13T22:00:12.760Z,21.3
2023-02-13T22:03:14.711Z,24.6
2023-02-13T22:06:16.661Z,24
2023-02-13T22:09:18.629Z,20.9
2023-02-13T22:12:20.589Z,22.5
2023-02-13T22:15:22.563Z,25.5
2023-02-13T22:18:24.539Z,20.5
2023-02-13T22:21:26.516Z,22.8
2023-02-13T22:24:28.465Z,25.3
2023-02-13T22:27:30.476Z,22.3
2023-02-13T22:30:32.535Z,26.3
2023-02-13T22:33:34.349Z,21.1
2023-02-13T22:36:36.306Z,21.3
2023-02-13T22:39:38.268Z,19
2023-02-13T22:42:40.219Z,20.2
2023-02-13T22:45:42.214Z,20.9
2023-02-13T22:48:44.151Z,22.6
2023-02-13T22:51:46.093Z,19.8
2023-02-13T22:54:48.053Z,23
2023-02-13T22:57:50.004Z,25.2
2023-02-13T23:00:51.974Z,18.2
2023-02-13T23:03:54.023Z,21.2
2023-02-13T23:06:55.881Z,22.9
2023-02-13T23:09:57.885Z,21.2
2023-02-13T23:12:59.803Z,21.9
2023-02-13T23:16:01.844Z,18.4
2023-02-13T23:19:03.728Z,18.8
2023-02-13T23:22:05.713Z,19
2023-02-13T23:25:07.689Z,18.4
2023-02-13T23:28:09.658Z,19.3
2023-02-13T23:31:11.764Z,20.5
2023-02-13T23:34:13.549Z,22.5
2023-02-13T23:37:15.529Z,20.8
2023-02-13T23:40:17.486Z,24.2
2023-02-13T23:43:19.449Z,19.3
2023-02-13T23:46:21.477Z,21.8
2023-02-13T23:49:23.377Z,21
2023-02-13T23:52:25.347Z,22.5
2023-02-13T23:55:27.318Z,21.5
2023-02-13T23:58:29.296Z,21.1
